sensor_id;sensor_type;location;lat;lon;timestamp;P1;durP1;ratioP1;P2;durP2;ratioP2
23015;SDS011;11674;52.428;13.584;2022-11-20T00:03:00;20.88;;;10.55;;
23015;SDS011;11674;52.428;13.584;2022-11-20T00:08:07;18.73;;;10.23;;
23015;SDS011;11674;52.428;13.584;2022-11-20T00:13:14;19.27;;;10.82;;
23015;SDS011;11674;52.428;13.584;2022-11-20T00:18:21;16.20;;;9.38;;
23015;SDS011;11674;52.428;13.584;2022-11-20T00:23:43;40.47;;;18.85;;
23015;SDS011;11674;52.428;13.584;2022-11-20T00:28:52;21.60;;;11.48;;
23015;SDS011;11674;52.428;13.584;2022-11-20T00:34:04;23.08;;;11.25;;
23015;SDS011;11674;52.428;13.584;2022-11-20T00:39:11;20.35;;;10.63;;
23015;SDS011;11674;52.428;13.584;2022-11-20T00:44:18;18.85;;;10.65;;
23015;SDS011;11674;52.428;13.584;2022-11-20T00:49:25;20.80;;;10.52;;
23015;SDS011;11674;52.428;13.584;2022-11-20T00:54:32;19.95;;;10.93;;
23015;SDS011;11674;52.428;13.584;2022-11-20T00:59:39;22.75;;;10.60;;
23015;SDS011;11674;52.428;13.584;2022-11-20T01:04:46;21.40;;;11.18;;
23015;SDS011;11674;52.428;13.584;2022-11-20T01:09:53;19.77;;;11.30;;
23015;SDS011;11674;52.428;13.584;2022-11-20T01:15:00;22.02;;;10.68;;
23015;SDS011;11674;52.428;13.584;2022-11-20T01:20:07;23.50;;;11.30;;
23015;SDS011;11674;52.428;13.584;2022-11-20T01:25:14;21.10;;;11.65;;
23015;SDS011;11674;52.428;13.584;2022-11-20T01:30:21;20.27;;;10.27;;
23015;SDS011;11674;52.428;13.584;2022-11-20T01:35:28;23.42;;;10.95;;
23015;SDS011;11674;52.428;13.584;2022-11-20T01:40:35;20.73;;;10.90;;
23015;SDS011;11674;52.428;13.584;2022-11-20T01:45:52;30.98;;;15.73;;
23015;SDS011;11674;52.428;13.584;2022-11-20T01:51:06;21.80;;;10.68;;
23015;SDS011;11674;52.428;13.584;2022-11-20T01:56:19;21.15;;;11.70;;
23015;SDS011;11674;52.428;13.584;2022-11-20T02:01:26;18.70;;;11.18;;
23015;SDS011;11674;52.428;13.584;2022-11-20T02:06:35;21.75;;;12.07;;
23015;SDS011;11674;52.428;13.584;2022-11-20T02:11:47;21.52;;;11.68;;
23015;SDS011;11674;52.428;13.584;2022-11-20T02:16:54;23.60;;;11.90;;
23015;SDS011;11674;52.428;13.584;2022-11-20T02:22:04;17.10;;;9.90;;
23015;SDS011;11674;52.428;13.584;2022-11-20T02:27:20;21.13;;;11.48;;
23015;SDS011;11674;52.428;13.584;2022-11-20T02:37:36;20.02;;;10.85;;
23015;SDS011;11674;52.428;13.584;2022-11-20T02:42:45;19.98;;;11.07;;
23015;SDS011;11674;52.428;13.584;2022-11-20T02:47:52;19.48;;;11.27;;
23015;SDS011;11674;52.428;13.584;2022-11-20T02:52:59;20.33;;;12.02;;
23015;SDS011;11674;52.428;13.584;2022-11-20T02:58:06;23.48;;;11.50;;
23015;SDS011;11674;52.428;13.584;2022-11-20T03:03:13;22.75;;;11.55;;
23015;SDS011;11674;52.428;13.584;2022-11-20T03:08:20;23.63;;;11.65;;
23015;SDS011;11674;52.428;13.584;2022-11-20T03:13:30;22.08;;;11.57;;
23015;SDS011;11674;52.428;13.584;2022-11-20T03:18:37;20.13;;;11.05;;
23015;SDS011;11674;52.428;13.584;2022-11-20T03:23:45;40.03;;;19.88;;
23015;SDS011;11674;52.428;13.584;2022-11-20T03:28:52;19.73;;;11.23;;
23015;SDS011;11674;52.428;13.584;2022-11-20T03:34:01;19.60;;;10.52;;
23015;SDS011;11674;52.428;13.584;2022-11-20T03:39:09;21.67;;;11.10;;
23015;SDS011;11674;52.428;13.584;2022-11-20T03:44:16;19.40;;;10.10;;
23015;SDS011;11674;52.428;13.584;2022-11-20T03:49:23;20.20;;;10.98;;
23015;SDS011;11674;52.428;13.584;2022-11-20T03:54:30;20.88;;;11.02;;
23015;SDS011;11674;52.428;13.584;2022-11-20T03:59:37;21.58;;;11.10;;
23015;SDS011;11674;52.428;13.584;2022-11-20T04:04:44;24.17;;;11.57;;
23015;SDS011;11674;52.428;13.584;2022-11-20T04:09:51;18.13;;;10.18;;
23015;SDS011;11674;52.428;13.584;2022-11-20T04:14:58;21.73;;;11.48;;
23015;SDS011;11674;52.428;13.584;2022-11-20T04:20:05;20.58;;;11.05;;
23015;SDS011;11674;52.428;13.584;2022-11-20T04:25:13;24.08;;;10.88;;
23015;SDS011;11674;52.428;13.584;2022-11-20T04:30:20;19.33;;;10.98;;
23015;SDS011;11674;52.428;13.584;2022-11-20T04:35:27;19.88;;;10.98;;
23015;SDS011;11674;52.428;13.584;2022-11-20T04:40:34;22.65;;;12.40;;
23015;SDS011;11674;52.428;13.584;2022-11-20T04:45:41;20.58;;;10.80;;
23015;SDS011;11674;52.428;13.584;2022-11-20T04:50:48;21.10;;;11.45;;
23015;SDS011;11674;52.428;13.584;2022-11-20T04:56:01;20.30;;;11.43;;
23015;SDS011;11674;52.428;13.584;2022-11-20T05:01:14;22.30;;;11.73;;
23015;SDS011;11674;52.428;13.584;2022-11-20T05:06:23;23.33;;;11.43;;
23015;SDS011;11674;52.428;13.584;2022-11-20T05:11:31;21.42;;;11.38;;
23015;SDS011;11674;52.428;13.584;2022-11-20T05:16:38;20.63;;;11.75;;
23015;SDS011;11674;52.428;13.584;2022-11-20T05:21:45;21.85;;;11.30;;
23015;SDS011;11674;52.428;13.584;2022-11-20T05:26:52;22.08;;;10.60;;
23015;SDS011;11674;52.428;13.584;2022-11-20T05:31:59;21.80;;;11.45;;
23015;SDS011;11674;52.428;13.584;2022-11-20T05:37:06;21.50;;;11.02;;
23015;SDS011;11674;52.428;13.584;2022-11-20T05:42:13;17.48;;;10.00;;
23015;SDS011;11674;52.428;13.584;2022-11-20T05:47:20;21.90;;;10.38;;
23015;SDS011;11674;52.428;13.584;2022-11-20T05:52:30;21.90;;;11.23;;
23015;SDS011;11674;52.428;13.584;2022-11-20T05:57:37;22.90;;;11.23;;
23015;SDS011;11674;52.428;13.584;2022-11-20T06:02:44;19.00;;;10.90;;
23015;SDS011;11674;52.428;13.584;2022-11-20T06:07:51;22.92;;;11.00;;
23015;SDS011;11674;52.428;13.584;2022-11-20T06:12:58;22.88;;;11.40;;
23015;SDS011;11674;52.428;13.584;2022-11-20T06:18:05;19.35;;;10.90;;
23015;SDS011;11674;52.428;13.584;2022-11-20T06:23:12;24.23;;;11.45;;
23015;SDS011;11674;52.428;13.584;2022-11-20T06:28:19;24.55;;;11.55;;
23015;SDS011;11674;52.428;13.584;2022-11-20T06:33:26;21.35;;;10.73;;
23015;SDS011;11674;52.428;13.584;2022-11-20T06:38:34;18.98;;;10.48;;
23015;SDS011;11674;52.428;13.584;2022-11-20T06:43:41;20.67;;;10.77;;
23015;SDS011;11674;52.428;13.584;2022-11-20T06:48:48;23.05;;;11.52;;
23015;SDS011;11674;52.428;13.584;2022-11-20T06:53:56;23.92;;;11.13;;
23015;SDS011;11674;52.428;13.584;2022-11-20T06:59:03;24.35;;;11.85;;
23015;SDS011;11674;52.428;13.584;2022-11-20T07:04:11;20.13;;;10.02;;
23015;SDS011;11674;52.428;13.584;2022-11-20T07:09:18;22.98;;;10.75;;
23015;SDS011;11674;52.428;13.584;2022-11-20T07:14:25;21.48;;;11.38;;
23015;SDS011;11674;52.428;13.584;2022-11-20T07:19:32;23.45;;;10.80;;
23015;SDS011;11674;52.428;13.584;2022-11-20T07:24:39;23.55;;;11.68;;
23015;SDS011;11674;52.428;13.584;2022-11-20T07:29:46;21.02;;;11.15;;
23015;SDS011;11674;52.428;13.584;2022-11-20T07:34:53;20.77;;;10.95;;
23015;SDS011;11674;52.428;13.584;2022-11-20T07:40:00;24.48;;;12.93;;
23015;SDS011;11674;52.428;13.584;2022-11-20T07:45:07;25.90;;;12.27;;
23015;SDS011;11674;52.428;13.584;2022-11-20T07:50:14;23.02;;;12.45;;
23015;SDS011;11674;52.428;13.584;2022-11-20T07:55:22;20.27;;;11.02;;
23015;SDS011;11674;52.428;13.584;2022-11-20T08:00:29;27.90;;;13.20;;
23015;SDS011;11674;52.428;13.584;2022-11-20T08:05:36;24.90;;;12.30;;
23015;SDS011;11674;52.428;13.584;2022-11-20T08:10:43;20.95;;;11.63;;
23015;SDS011;11674;52.428;13.584;2022-11-20T08:15:50;19.58;;;11.65;;
23015;SDS011;11674;52.428;13.584;2022-11-20T08:20:57;22.23;;;11.60;;
23015;SDS011;11674;52.428;13.584;2022-11-20T08:26:11;19.90;;;11.00;;
23015;SDS011;11674;52.428;13.584;2022-11-20T08:31:18;22.90;;;11.48;;
23015;SDS011;11674;52.428;13.584;2022-11-20T08:36:25;21.02;;;11.25;;
23015;SDS011;11674;52.428;13.584;2022-11-20T08:41:32;21.10;;;10.93;;
23015;SDS011;11674;52.428;13.584;2022-11-20T08:46:40;23.38;;;11.50;;
23015;SDS011;11674;52.428;13.584;2022-11-20T08:51:48;20.63;;;12.23;;
23015;SDS011;11674;52.428;13.584;2022-11-20T08:56:55;19.48;;;11.85;;
23015;SDS011;11674;52.428;13.584;2022-11-20T09:02:02;19.67;;;10.45;;
23015;SDS011;11674;52.428;13.584;2022-11-20T09:07:09;19.48;;;10.95;;
23015;SDS011;11674;52.428;13.584;2022-11-20T09:12:16;22.63;;;10.65;;
23015;SDS011;11674;52.428;13.584;2022-11-20T09:17:23;21.00;;;11.40;;
23015;SDS011;11674;52.428;13.584;2022-11-20T09:22:30;20.60;;;11.88;;
23015;SDS011;11674;52.428;13.584;2022-11-20T09:27:37;19.55;;;12.02;;
23015;SDS011;11674;52.428;13.584;2022-11-20T09:32:44;24.02;;;11.50;;
23015;SDS011;11674;52.428;13.584;2022-11-20T09:37:51;19.85;;;11.45;;
23015;SDS011;11674;52.428;13.584;2022-11-20T09:54:19;22.27;;;12.52;;
23015;SDS011;11674;52.428;13.584;2022-11-20T09:59:41;23.35;;;13.25;;
23015;SDS011;11674;52.428;13.584;2022-11-20T10:04:55;22.27;;;12.02;;
23015;SDS011;11674;52.428;13.584;2022-11-20T10:10:20;21.73;;;12.52;;
23015;SDS011;11674;52.428;13.584;2022-11-20T10:16:19;22.27;;;11.32;;
23015;SDS011;11674;52.428;13.584;2022-11-20T10:21:27;26.88;;;12.93;;
23015;SDS011;11674;52.428;13.584;2022-11-20T10:32:11;23.65;;;12.95;;
23015;SDS011;11674;52.428;13.584;2022-11-20T10:37:24;24.70;;;13.02;;
23015;SDS011;11674;52.428;13.584;2022-11-20T10:43:07;22.10;;;12.82;;
23015;SDS011;11674;52.428;13.584;2022-11-20T11:04:07;25.65;;;12.80;;
23015;SDS011;11674;52.428;13.584;2022-11-20T11:09:43;24.83;;;13.50;;
23015;SDS011;11674;52.428;13.584;2022-11-20T11:14:54;22.08;;;12.65;;
23015;SDS011;11674;52.428;13.584;2022-11-20T11:30:43;25.77;;;13.25;;
23015;SDS011;11674;52.428;13.584;2022-11-20T11:36:34;25.98;;;12.70;;
23015;SDS011;11674;52.428;13.584;2022-11-20T11:41:31;24.95;;;13.40;;
23015;SDS011;11674;52.428;13.584;2022-11-20T11:46:39;26.02;;;14.48;;
23015;SDS011;11674;52.428;13.584;2022-11-20T12:08:27;21.98;;;12.10;;
23015;SDS011;11674;52.428;13.584;2022-11-20T12:13:44;21.95;;;12.65;;
23015;SDS011;11674;52.428;13.584;2022-11-20T12:18:57;23.67;;;12.82;;
23015;SDS011;11674;52.428;13.584;2022-11-20T12:35:18;21.50;;;12.57;;
23015;SDS011;11674;52.428;13.584;2022-11-20T13:03:37;17.30;;;10.73;;
23015;SDS011;11674;52.428;13.584;2022-11-20T13:08:29;20.30;;;10.15;;
23015;SDS011;11674;52.428;13.584;2022-11-20T13:19:14;14.65;;;7.72;;
23015;SDS011;11674;52.428;13.584;2022-11-20T13:24:24;13.63;;;7.53;;
23015;SDS011;11674;52.428;13.584;2022-11-20T13:29:34;13.70;;;7.55;;
23015;SDS011;11674;52.428;13.584;2022-11-20T13:34:55;13.57;;;7.18;;
23015;SDS011;11674;52.428;13.584;2022-11-20T13:40:19;14.05;;;6.25;;
23015;SDS011;11674;52.428;13.584;2022-11-20T13:45:29;14.20;;;6.47;;
23015;SDS011;11674;52.428;13.584;2022-11-20T14:01:08;15.43;;;6.65;;
23015;SDS011;11674;52.428;13.584;2022-11-20T14:11:33;16.48;;;8.65;;
23015;SDS011;11674;52.428;13.584;2022-11-20T14:16:40;18.45;;;9.57;;
23015;SDS011;11674;52.428;13.584;2022-11-20T14:21:47;15.10;;;8.77;;
23015;SDS011;11674;52.428;13.584;2022-11-20T14:26:55;16.42;;;8.52;;
23015;SDS011;11674;52.428;13.584;2022-11-20T14:32:02;14.98;;;8.77;;
23015;SDS011;11674;52.428;13.584;2022-11-20T14:37:11;19.83;;;8.80;;
23015;SDS011;11674;52.428;13.584;2022-11-20T14:47:34;13.63;;;8.52;;
23015;SDS011;11674;52.428;13.584;2022-11-20T14:52:49;15.23;;;8.20;;
23015;SDS011;11674;52.428;13.584;2022-11-20T14:58:22;16.85;;;8.75;;
23015;SDS011;11674;52.428;13.584;2022-11-20T15:03:35;17.80;;;9.32;;
23015;SDS011;11674;52.428;13.584;2022-11-20T15:08:50;20.58;;;9.07;;
23015;SDS011;11674;52.428;13.584;2022-11-20T15:14:00;17.08;;;8.25;;
23015;SDS011;11674;52.428;13.584;2022-11-20T15:19:23;14.18;;;8.52;;
23015;SDS011;11674;52.428;13.584;2022-11-20T15:24:32;17.63;;;8.63;;
23015;SDS011;11674;52.428;13.584;2022-11-20T15:29:39;17.02;;;8.85;;
23015;SDS011;11674;52.428;13.584;2022-11-20T15:34:47;16.85;;;9.07;;
23015;SDS011;11674;52.428;13.584;2022-11-20T15:39:54;15.02;;;9.32;;
23015;SDS011;11674;52.428;13.584;2022-11-20T15:45:01;17.10;;;9.00;;
23015;SDS011;11674;52.428;13.584;2022-11-20T15:50:11;17.25;;;10.20;;
23015;SDS011;11674;52.428;13.584;2022-11-20T15:55:23;18.85;;;8.70;;
23015;SDS011;11674;52.428;13.584;2022-11-20T16:00:30;18.02;;;9.32;;
23015;SDS011;11674;52.428;13.584;2022-11-20T16:05:37;20.33;;;10.55;;
23015;SDS011;11674;52.428;13.584;2022-11-20T16:10:44;20.67;;;9.90;;
23015;SDS011;11674;52.428;13.584;2022-11-20T16:15:52;20.10;;;10.07;;
23015;SDS011;11674;52.428;13.584;2022-11-20T16:21:03;17.15;;;9.80;;
23015;SDS011;11674;52.428;13.584;2022-11-20T16:26:11;15.07;;;9.05;;
23015;SDS011;11674;52.428;13.584;2022-11-20T16:31:19;15.80;;;8.77;;
23015;SDS011;11674;52.428;13.584;2022-11-20T16:36:27;15.63;;;8.82;;
23015;SDS011;11674;52.428;13.584;2022-11-20T16:41:37;22.55;;;10.13;;
23015;SDS011;11674;52.428;13.584;2022-11-20T16:46:44;17.00;;;8.45;;
23015;SDS011;11674;52.428;13.584;2022-11-20T16:51:51;14.45;;;8.38;;
23015;SDS011;11674;52.428;13.584;2022-11-20T16:56:58;13.15;;;8.48;;
23015;SDS011;11674;52.428;13.584;2022-11-20T17:02:05;16.23;;;8.77;;
23015;SDS011;11674;52.428;13.584;2022-11-20T17:07:12;16.80;;;8.82;;
23015;SDS011;11674;52.428;13.584;2022-11-20T17:12:19;12.65;;;7.72;;
23015;SDS011;11674;52.428;13.584;2022-11-20T17:17:26;16.70;;;7.00;;
23015;SDS011;11674;52.428;13.584;2022-11-20T17:22:33;10.80;;;6.70;;
23015;SDS011;11674;52.428;13.584;2022-11-20T17:27:40;14.30;;;7.60;;
23015;SDS011;11674;52.428;13.584;2022-11-20T17:32:47;13.70;;;7.72;;
23015;SDS011;11674;52.428;13.584;2022-11-20T17:37:54;13.90;;;7.55;;
23015;SDS011;11674;52.428;13.584;2022-11-20T17:43:01;12.95;;;8.02;;
23015;SDS011;11674;52.428;13.584;2022-11-20T17:48:08;35.25;;;16.80;;
23015;SDS011;11674;52.428;13.584;2022-11-20T17:53:15;16.50;;;8.13;;
23015;SDS011;11674;52.428;13.584;2022-11-20T17:58:22;12.52;;;6.95;;
23015;SDS011;11674;52.428;13.584;2022-11-20T18:03:32;16.38;;;7.97;;
23015;SDS011;11674;52.428;13.584;2022-11-20T18:08:39;15.38;;;8.18;;
23015;SDS011;11674;52.428;13.584;2022-11-20T18:13:47;13.15;;;7.97;;
23015;SDS011;11674;52.428;13.584;2022-11-20T18:18:57;13.68;;;7.93;;
23015;SDS011;11674;52.428;13.584;2022-11-20T18:24:04;11.45;;;7.07;;
23015;SDS011;11674;52.428;13.584;2022-11-20T18:29:12;14.50;;;7.82;;
23015;SDS011;11674;52.428;13.584;2022-11-20T18:34:19;14.02;;;8.07;;
23015;SDS011;11674;52.428;13.584;2022-11-20T18:39:26;13.55;;;7.32;;
23015;SDS011;11674;52.428;13.584;2022-11-20T18:44:33;12.32;;;7.75;;
23015;SDS011;11674;52.428;13.584;2022-11-20T18:49:43;16.02;;;8.05;;
23015;SDS011;11674;52.428;13.584;2022-11-20T18:54:52;12.25;;;7.95;;
23015;SDS011;11674;52.428;13.584;2022-11-20T18:59:59;16.25;;;7.45;;
23015;SDS011;11674;52.428;13.584;2022-11-20T19:05:13;15.73;;;7.75;;
23015;SDS011;11674;52.428;13.584;2022-11-20T19:10:20;13.18;;;7.88;;
23015;SDS011;11674;52.428;13.584;2022-11-20T19:15:27;15.35;;;8.50;;
23015;SDS011;11674;52.428;13.584;2022-11-20T19:20:34;16.25;;;8.93;;
23015;SDS011;11674;52.428;13.584;2022-11-20T19:25:41;22.75;;;9.65;;
23015;SDS011;11674;52.428;13.584;2022-11-20T19:30:48;16.15;;;10.07;;
23015;SDS011;11674;52.428;13.584;2022-11-20T19:35:55;19.33;;;10.65;;
23015;SDS011;11674;52.428;13.584;2022-11-20T19:41:02;21.13;;;10.65;;
23015;SDS011;11674;52.428;13.584;2022-11-20T19:46:10;20.05;;;10.63;;
23015;SDS011;11674;52.428;13.584;2022-11-20T19:51:18;20.67;;;10.60;;
23015;SDS011;11674;52.428;13.584;2022-11-20T19:56:29;19.00;;;10.95;;
23015;SDS011;11674;52.428;13.584;2022-11-20T20:01:38;21.92;;;11.63;;
23015;SDS011;11674;52.428;13.584;2022-11-20T20:06:45;22.30;;;11.40;;
23015;SDS011;11674;52.428;13.584;2022-11-20T20:11:55;22.50;;;12.02;;
23015;SDS011;11674;52.428;13.584;2022-11-20T20:17:02;20.40;;;10.93;;
23015;SDS011;11674;52.428;13.584;2022-11-20T20:22:09;19.42;;;10.82;;
23015;SDS011;11674;52.428;13.584;2022-11-20T20:27:16;23.70;;;11.55;;
23015;SDS011;11674;52.428;13.584;2022-11-20T20:32:24;24.23;;;11.57;;
23015;SDS011;11674;52.428;13.584;2022-11-20T20:37:31;22.95;;;11.68;;
23015;SDS011;11674;52.428;13.584;2022-11-20T20:42:38;23.30;;;11.63;;
23015;SDS011;11674;52.428;13.584;2022-11-20T20:47:45;25.95;;;12.70;;
23015;SDS011;11674;52.428;13.584;2022-11-20T20:52:52;21.58;;;11.32;;
23015;SDS011;11674;52.428;13.584;2022-11-20T20:57:59;25.90;;;11.90;;
23015;SDS011;11674;52.428;13.584;2022-11-20T21:03:06;27.88;;;13.05;;
23015;SDS011;11674;52.428;13.584;2022-11-20T21:08:13;27.75;;;12.05;;
23015;SDS011;11674;52.428;13.584;2022-11-20T21:13:21;24.20;;;12.30;;
23015;SDS011;11674;52.428;13.584;2022-11-20T21:18:30;26.08;;;12.20;;
23015;SDS011;11674;52.428;13.584;2022-11-20T21:23:37;24.92;;;12.50;;
23015;SDS011;11674;52.428;13.584;2022-11-20T21:28:44;26.60;;;12.77;;
23015;SDS011;11674;52.428;13.584;2022-11-20T21:33:52;20.55;;;11.07;;
23015;SDS011;11674;52.428;13.584;2022-11-20T21:39:00;23.27;;;11.85;;
23015;SDS011;11674;52.428;13.584;2022-11-20T21:44:11;23.13;;;11.50;;
23015;SDS011;11674;52.428;13.584;2022-11-20T21:49:19;22.70;;;11.82;;
23015;SDS011;11674;52.428;13.584;2022-11-20T21:54:26;21.92;;;10.88;;
23015;SDS011;11674;52.428;13.584;2022-11-20T21:59:33;24.50;;;12.20;;
23015;SDS011;11674;52.428;13.584;2022-11-20T22:04:40;24.38;;;11.10;;
23015;SDS011;11674;52.428;13.584;2022-11-20T22:09:47;25.65;;;12.15;;
23015;SDS011;11674;52.428;13.584;2022-11-20T22:14:54;22.52;;;11.45;;
23015;SDS011;11674;52.428;13.584;2022-11-20T22:20:01;22.05;;;11.40;;
23015;SDS011;11674;52.428;13.584;2022-11-20T22:25:08;23.30;;;11.20;;
23015;SDS011;11674;52.428;13.584;2022-11-20T22:30:15;22.73;;;11.38;;
23015;SDS011;11674;52.428;13.584;2022-11-20T22:35:22;23.92;;;11.43;;
23015;SDS011;11674;52.428;13.584;2022-11-20T22:40:30;26.48;;;12.40;;
23015;SDS011;11674;52.428;13.584;2022-11-20T22:45:37;23.80;;;12.43;;
23015;SDS011;11674;52.428;13.584;2022-11-20T22:50:44;20.45;;;11.02;;
23015;SDS011;11674;52.428;13.584;2022-11-20T22:55:51;24.58;;;12.20;;
23015;SDS011;11674;52.428;13.584;2022-11-20T23:06:20;27.25;;;12.85;;
23015;SDS011;11674;52.428;13.584;2022-11-20T23:11:29;24.38;;;11.80;;
23015;SDS011;11674;52.428;13.584;2022-11-20T23:16:37;25.80;;;11.75;;
23015;SDS011;11674;52.428;13.584;2022-11-20T23:21:44;24.13;;;12.05;;
23015;SDS011;11674;52.428;13.584;2022-11-20T23:26:51;27.23;;;11.98;;
23015;SDS011;11674;52.428;13.584;2022-11-20T23:31:58;25.05;;;12.45;;
23015;SDS011;11674;52.428;13.584;2022-11-20T23:37:05;25.27;;;12.32;;
23015;SDS011;11674;52.428;13.584;2022-11-20T23:42:12;29.08;;;12.70;;
23015;SDS011;11674;52.428;13.584;2022-11-20T23:47:19;24.52;;;12.65;;
23015;SDS011;11674;52.428;13.584;2022-11-20T23:52:26;24.90;;;12.73;;
23015;SDS011;11674;52.428;13.584;2022-11-20T23:57:33;26.20;;;12.65;;
